Time;durP1;ratioP1;P1;durP2;ratioP2;P2;SDS_P1;SDS_P2;PMS_P1;PMS_P2;Temp;Humidity;BMP_temperature;BMP_pressure;BME280_temperature;BME280_humidity;BME280_pressure;Samples;Min_cycle;Max_cycle;Signal;HPM_P1;HPM_P2
2021/06/03 00:00:45;;;;;;;22.67;10.80;;;;;;;;;;5049566;28;20028;-43
2021/06/03 00:03:11;;;;;;;25.42;12.38;;;;;;;;;;5049772;28;20032;-42
2021/06/03 00:05:40;;;;;;;15.25;7.85;;;;;;;;;;5049247;28;20036;-44
2021/06/03 00:08:06;;;;;;;10.68;6.25;;;;;;;;;;5049431;28;20036;-42
2021/06/03 00:10:34;;;;;;;14.65;5.88;;;;;;;;;;5049185;28;20058;-42
2021/06/03 00:13:00;;;;;;;6.75;5.38;;;;;;;;;;5050611;28;20036;-44
2021/06/03 00:15:26;;;;;;;17.33;6.47;;;;;;;;;;5076600;28;20031;-44
2021/06/03 00:17:53;;;;;;;10.38;6.07;;;;;;;;;;5076282;28;20459;-45
2021/06/03 00:20:20;;;;;;;10.48;6.07;;;;;;;;;;5076312;28;20020;-44
2021/06/03 00:22:46;;;;;;;5.88;5.07;;;;;;;;;;5076179;28;20032;-44
2021/06/03 00:25:12;;;;;;;11.15;6.05;;;;;;;;;;5076089;28;20389;-42
2021/06/03 00:27:38;;;;;;;7.68;5.53;;;;;;;;;;5076233;28;20020;-43
2021/06/03 00:30:05;;;;;;;22.08;12.60;;;;;;;;;;5076246;28;20067;-43
2021/06/03 00:32:31;;;;;;;66.97;40.47;;;;;;;;;;5075857;28;20476;-45
2021/06/03 00:34:58;;;;;;;37.20;24.25;;;;;;;;;;5076020;28;20029;-45
2021/06/03 00:37:26;;;;;;;20.55;13.85;;;;;;;;;;5075903;28;20024;-44
2021/06/03 00:39:52;;;;;;;12.18;8.15;;;;;;;;;;5075911;28;20066;-45
2021/06/03 00:42:18;;;;;;;19.20;11.55;;;;;;;;;;5075954;28;20028;-44
2021/06/03 00:44:44;;;;;;;22.25;9.27;;;;;;;;;;5075721;28;20033;-44
2021/06/03 00:47:10;;;;;;;67.68;43.55;;;;;;;;;;5076071;28;20028;-45
2021/06/03 00:49:37;;;;;;;33.65;19.27;;;;;;;;;;5076068;28;20024;-45
2021/06/03 00:52:03;;;;;;;50.05;32.38;;;;;;;;;;5075659;28;20048;-44
2021/06/03 00:54:30;;;;;;;62.50;41.53;;;;;;;;;;5076053;28;20067;-44
2021/06/03 00:56:56;;;;;;;16.38;8.00;;;;;;;;;;5075635;28;20017;-44
2021/06/03 00:59:24;;;;;;;12.10;7.72;;;;;;;;;;5075605;28;20469;-44
2021/06/03 01:01:50;;;;;;;11.70;7.50;;;;;;;;;;5075980;28;20385;-44
2021/06/03 01:04:19;;;;;;;13.18;6.75;;;;;;;;;;5075693;28;20082;-44
2021/06/03 01:06:46;;;;;;;14.50;8.48;;;;;;;;;;5074749;28;20024;-43
2021/06/03 01:09:28;;;;;;;13.80;7.53;;;;;;;;;;5075458;28;20029;-43
2021/06/03 01:11:54;;;;;;;8.05;6.07;;;;;;;;;;5075283;28;20021;-44
2021/06/03 01:14:24;;;;;;;8.55;5.22;;;;;;;;;;5075567;28;20397;-44
2021/06/03 01:16:50;;;;;;;10.60;5.75;;;;;;;;;;5075210;28;20086;-44
2021/06/03 01:19:20;;;;;;;13.50;8.70;;;;;;;;;;5075365;28;20104;-42
2021/06/03 01:22:13;;;;;;;47.28;28.15;;;;;;;;;;5075089;28;20428;-43
2021/06/03 01:24:41;;;;;;;26.00;15.45;;;;;;;;;;4993660;28;20138;-42
2021/06/03 01:27:08;;;;;;;15.50;7.82;;;;;;;;;;4993849;28;20026;-43
2021/06/03 01:29:41;;;;;;;25.15;15.73;;;;;;;;;;4993805;28;20212;-43
2021/06/03 01:32:08;;;;;;;23.98;14.50;;;;;;;;;;4993468;28;20478;-44
2021/06/03 01:34:34;;;;;;;53.17;31.50;;;;;;;;;;4993555;28;20048;-43
2021/06/03 01:37:00;;;;;;;17.50;10.10;;;;;;;;;;4993600;28;20054;-44
2021/06/03 01:39:26;;;;;;;18.00;10.07;;;;;;;;;;4993464;28;20034;-43
2021/06/03 01:41:55;;;;;;;14.98;7.88;;;;;;;;;;4993386;28;20115;-43
2021/06/03 01:44:21;;;;;;;13.20;6.85;;;;;;;;;;4993364;28;20037;-43
2021/06/03 01:46:49;;;;;;;9.50;6.72;;;;;;;;;;4977402;28;20108;-43
2021/06/03 01:49:16;;;;;;;9.38;5.90;;;;;;;;;;4993306;28;20059;-42
2021/06/03 01:51:42;;;;;;;13.07;6.47;;;;;;;;;;4993064;28;20108;-42
2021/06/03 01:54:09;;;;;;;8.35;5.55;;;;;;;;;;4993375;28;20502;-42
2021/06/03 01:56:36;;;;;;;12.85;9.00;;;;;;;;;;4993437;28;20023;-43
2021/06/03 01:59:02;;;;;;;8.65;6.10;;;;;;;;;;4993129;28;20169;-43
2021/06/03 02:01:30;;;;;;;11.60;7.20;;;;;;;;;;5035474;28;20039;-43
2021/06/03 02:03:56;;;;;;;9.25;6.93;;;;;;;;;;5074361;28;20032;-43
2021/06/03 02:06:22;;;;;;;20.10;8.15;;;;;;;;;;5074259;28;20039;-43
2021/06/03 02:08:48;;;;;;;11.02;6.30;;;;;;;;;;5074443;28;20024;-45
2021/06/03 02:11:14;;;;;;;14.18;8.00;;;;;;;;;;5074537;28;20108;-44
2021/06/03 02:14:07;;;;;;;13.48;7.78;;;;;;;;;;5074578;28;20025;-44
2021/06/03 02:16:39;;;;;;;19.60;10.93;;;;;;;;;;5071420;28;20484;-44
2021/06/03 02:19:23;;;;;;;20.98;12.35;;;;;;;;;;5073308;28;20370;-42
2021/06/03 02:21:50;;;;;;;28.30;15.70;;;;;;;;;;5074063;28;20025;-42
2021/06/03 02:24:16;;;;;;;30.58;19.45;;;;;;;;;;5074111;28;20036;-44
2021/06/03 02:26:43;;;;;;;42.08;27.00;;;;;;;;;;5055973;28;20384;-42
2021/06/03 02:29:09;;;;;;;57.63;37.03;;;;;;;;;;5073910;28;20089;-43
2021/06/03 02:31:36;;;;;;;65.50;40.03;;;;;;;;;;5074106;28;20118;-45
2021/06/03 02:34:05;;;;;;;74.68;44.63;;;;;;;;;;5074296;28;20081;-43
2021/06/03 02:36:33;;;;;;;77.80;53.58;;;;;;;;;;5074058;28;20054;-44
2021/06/03 02:39:00;;;;;;;63.17;42.72;;;;;;;;;;5073998;28;20020;-43
2021/06/03 02:41:29;;;;;;;54.40;39.40;;;;;;;;;;5073618;28;20060;-51
2021/06/03 02:43:57;;;;;;;49.60;35.72;;;;;;;;;;5073764;28;20028;-44
2021/06/03 02:46:23;;;;;;;43.13;29.58;;;;;;;;;;5073638;28;20032;-42
2021/06/03 02:48:49;;;;;;;35.42;25.40;;;;;;;;;;5073737;28;20541;-42
2021/06/03 02:51:16;;;;;;;32.88;22.63;;;;;;;;;;5073576;28;20080;-42
2021/06/03 02:53:44;;;;;;;33.80;25.42;;;;;;;;;;5073865;28;20029;-43
2021/06/03 02:56:10;;;;;;;38.85;27.92;;;;;;;;;;5073578;28;20020;-42
2021/06/03 02:58:36;;;;;;;41.58;30.75;;;;;;;;;;5073582;28;20484;-43
2021/06/03 03:01:03;;;;;;;50.25;37.40;;;;;;;;;;5055657;28;20028;-42
2021/06/03 03:03:29;;;;;;;50.83;37.38;;;;;;;;;;5073365;28;20422;-43
2021/06/03 03:05:55;;;;;;;55.53;38.85;;;;;;;;;;5073562;28;20056;-42
2021/06/03 03:08:22;;;;;;;41.35;31.88;;;;;;;;;;5073462;28;20067;-44
2021/06/03 03:10:52;;;;;;;46.25;31.83;;;;;;;;;;5073511;28;20032;-43
2021/06/03 03:13:18;;;;;;;39.27;27.67;;;;;;;;;;5073442;28;20499;-43
2021/06/03 03:15:45;;;;;;;30.08;21.70;;;;;;;;;;5073368;28;20029;-42
2021/06/03 03:18:11;;;;;;;24.83;17.20;;;;;;;;;;5073606;28;20048;-43
2021/06/03 03:20:38;;;;;;;18.67;13.32;;;;;;;;;;5055305;28;20447;-43
2021/06/03 03:23:05;;;;;;;17.35;10.75;;;;;;;;;;5073587;28;20025;-43
2021/06/03 03:25:34;;;;;;;14.32;9.85;;;;;;;;;;5073377;28;20029;-43
2021/06/03 03:28:00;;;;;;;14.98;8.65;;;;;;;;;;5073383;28;20492;-44
2021/06/03 03:30:27;;;;;;;15.25;8.52;;;;;;;;;;5075872;28;20099;-42
2021/06/03 03:32:53;;;;;;;14.00;8.88;;;;;;;;;;5077260;28;20024;-44
2021/06/03 03:35:20;;;;;;;11.88;9.20;;;;;;;;;;5077143;28;20020;-44
2021/06/03 03:37:47;;;;;;;14.23;9.90;;;;;;;;;;5077563;28;20056;-41
2021/06/03 03:40:15;;;;;;;10.68;8.10;;;;;;;;;;5077259;28;20024;-42
2021/06/03 03:42:41;;;;;;;13.02;8.90;;;;;;;;;;5077227;28;20502;-42
2021/06/03 03:45:08;;;;;;;17.05;8.90;;;;;;;;;;5077012;28;20036;-43
2021/06/03 03:47:34;;;;;;;21.88;9.50;;;;;;;;;;5077276;28;20051;-42
2021/06/03 03:50:00;;;;;;;18.48;9.25;;;;;;;;;;5077271;28;20385;-42
2021/06/03 03:52:27;;;;;;;18.30;9.70;;;;;;;;;;5077012;28;20060;-44
2021/06/03 03:54:53;;;;;;;16.67;8.60;;;;;;;;;;5077205;28;20028;-52
2021/06/03 03:57:20;;;;;;;14.07;9.32;;;;;;;;;;5077015;28;20544;-47
2021/06/03 03:59:50;;;;;;;19.95;9.23;;;;;;;;;;5076977;28;20039;-57
2021/06/03 04:02:19;;;;;;;19.88;10.20;;;;;;;;;;5077129;28;20025;-53
2021/06/03 04:04:45;;;;;;;14.82;9.15;;;;;;;;;;5076927;28;20145;-52
2021/06/03 04:07:11;;;;;;;16.40;8.63;;;;;;;;;;5077024;28;20063;-48
2021/06/03 04:09:37;;;;;;;16.17;8.95;;;;;;;;;;5076978;28;20035;-46
2021/06/03 04:12:03;;;;;;;17.40;8.95;;;;;;;;;;5076538;28;20025;-53
2021/06/03 04:14:29;;;;;;;14.85;8.15;;;;;;;;;;5076620;28;20020;-48
2021/06/03 04:16:57;;;;;;;14.45;8.50;;;;;;;;;;5076537;28;20027;-56
2021/06/03 04:19:23;;;;;;;15.90;8.52;;;;;;;;;;5076624;28;20145;-51
2021/06/03 04:21:50;;;;;;;17.02;7.82;;;;;;;;;;5076631;28;20482;-52
2021/06/03 04:24:16;;;;;;;12.25;7.68;;;;;;;;;;5076280;28;20036;-48
2021/06/03 04:26:43;;;;;;;13.13;8.10;;;;;;;;;;5076068;28;20082;-46
2021/06/03 04:29:09;;;;;;;10.60;7.68;;;;;;;;;;5076389;28;20103;-46
2021/06/03 04:31:36;;;;;;;11.00;7.50;;;;;;;;;;5076241;28;20024;-50
2021/06/03 04:34:02;;;;;;;17.55;7.40;;;;;;;;;;5076300;28;20483;-50
2021/06/03 04:36:28;;;;;;;14.35;7.88;;;;;;;;;;5076468;28;20100;-49
2021/06/03 04:38:54;;;;;;;10.50;7.03;;;;;;;;;;5076350;28;20103;-44
2021/06/03 04:41:20;;;;;;;12.77;6.53;;;;;;;;;;5075106;28;20077;-45
2021/06/03 04:43:46;;;;;;;12.32;6.40;;;;;;;;;;5076204;28;20069;-47
2021/06/03 04:46:13;;;;;;;10.05;6.35;;;;;;;;;;5075706;28;20033;-52
2021/06/03 04:48:39;;;;;;;9.45;6.00;;;;;;;;;;5076098;28;20035;-45
2021/06/03 04:51:08;;;;;;;13.93;6.50;;;;;;;;;;5075709;28;20045;-45
2021/06/03 04:53:34;;;;;;;10.82;5.82;;;;;;;;;;5075902;28;20025;-45
2021/06/03 04:56:00;;;;;;;13.23;5.97;;;;;;;;;;5075725;28;20508;-48
2021/06/03 04:58:27;;;;;;;10.05;5.47;;;;;;;;;;5075886;28;20078;-53
2021/06/03 05:00:53;;;;;;;11.95;5.78;;;;;;;;;;5075736;28;20032;-56
2021/06/03 05:03:22;;;;;;;8.38;5.30;;;;;;;;;;5075557;28;20021;-63
2021/06/03 05:05:48;;;;;;;10.98;5.22;;;;;;;;;;5075541;28;20435;-47
2021/06/03 05:08:14;;;;;;;7.70;5.35;;;;;;;;;;5075775;28;20461;-45
2021/06/03 05:10:40;;;;;;;12.88;5.07;;;;;;;;;;5075425;28;20556;-45
2021/06/03 05:13:06;;;;;;;13.75;5.07;;;;;;;;;;5057196;28;20427;-46
2021/06/03 05:15:32;;;;;;;10.57;4.05;;;;;;;;;;5075340;28;20032;-46
2021/06/03 05:17:59;;;;;;;9.15;4.07;;;;;;;;;;5075624;28;20071;-46
2021/06/03 05:20:26;;;;;;;12.02;3.78;;;;;;;;;;5075785;28;20056;-45
2021/06/03 05:22:53;;;;;;;10.18;4.05;;;;;;;;;;5075400;28;20598;-46
2021/06/03 05:25:20;;;;;;;15.70;4.35;;;;;;;;;;5075114;28;20025;-45
2021/06/03 05:27:46;;;;;;;8.90;6.18;;;;;;;;;;5075342;28;20067;-45
2021/06/03 05:30:15;;;;;;;32.28;22.13;;;;;;;;;;5075233;28;20052;-46
2021/06/03 05:32:43;;;;;;;33.30;22.02;;;;;;;;;;5075314;28;20504;-45
2021/06/03 05:35:11;;;;;;;18.27;9.05;;;;;;;;;;5075219;28;20020;-46
2021/06/03 05:37:37;;;;;;;16.23;5.63;;;;;;;;;;5075035;28;20055;-47
2021/06/03 05:40:04;;;;;;;15.38;9.73;;;;;;;;;;5075104;28;20480;-46
2021/06/03 05:42:31;;;;;;;11.80;6.60;;;;;;;;;;5074976;28;20020;-47
2021/06/03 05:44:57;;;;;;;11.75;5.25;;;;;;;;;;5074745;28;20035;-47
2021/06/03 05:47:23;;;;;;;12.27;5.32;;;;;;;;;;5075017;28;20052;-45
2021/06/03 05:49:52;;;;;;;7.47;3.70;;;;;;;;;;5075025;28;20119;-46
2021/06/03 05:52:18;;;;;;;14.75;7.53;;;;;;;;;;5074135;28;20049;-45
2021/06/03 05:54:44;;;;;;;16.65;7.43;;;;;;;;;;5074719;28;20453;-46
2021/06/03 05:57:10;;;;;;;10.30;6.28;;;;;;;;;;5074796;28;20021;-46
2021/06/03 05:59:36;;;;;;;13.55;5.45;;;;;;;;;;5074624;28;20028;-45
2021/06/03 06:02:05;;;;;;;16.10;7.75;;;;;;;;;;5074662;28;20376;-45
2021/06/03 06:06:57;;;;;;;17.50;9.55;;;;;;;;;;5074417;28;20028;-45
2021/06/03 06:09:26;;;;;;;27.17;11.88;;;;;;;;;;5074355;28;20020;-46
2021/06/03 06:11:52;;;;;;;16.90;8.07;;;;;;;;;;5074170;28;20028;-46
2021/06/03 06:14:18;;;;;;;17.92;9.35;;;;;;;;;;5074291;28;20025;-45
2021/06/03 06:16:44;;;;;;;25.70;12.25;;;;;;;;;;5074404;28;20375;-46
2021/06/03 06:19:10;;;;;;;38.03;20.33;;;;;;;;;;5074377;28;20035;-45
2021/06/03 06:21:37;;;;;;;26.95;13.27;;;;;;;;;;5074000;28;20024;-45
2021/06/03 06:24:03;;;;;;;11.90;5.93;;;;;;;;;;5074170;28;20028;-46
2021/06/03 06:26:29;;;;;;;20.08;10.52;;;;;;;;;;5074083;28;20396;-47
2021/06/03 06:28:58;;;;;;;15.27;7.68;;;;;;;;;;5073811;28;20056;-46
2021/06/03 06:31:24;;;;;;;28.00;14.93;;;;;;;;;;5074243;28;20165;-46
2021/06/03 06:33:53;;;;;;;20.35;10.82;;;;;;;;;;5073748;28;20468;-46
2021/06/03 06:36:24;;;;;;;29.65;15.88;;;;;;;;;;5073745;28;20056;-45
2021/06/03 06:38:50;;;;;;;;;;;;;;;;;;5074313;28;20032;-44
2021/06/03 06:41:16;;;;;;;23.40;13.85;;;;;;;;;;5073737;28;19999;-46
2021/06/03 06:43:42;;;;;;;24.38;9.02;;;;;;;;;;5073579;28;20050;-51
2021/06/03 06:46:08;;;;;;;19.13;11.70;;;;;;;;;;5073711;28;20040;-46
2021/06/03 06:48:34;;;;;;;25.73;14.95;;;;;;;;;;5073612;28;20157;-45
2021/06/03 06:51:01;;;;;;;15.55;9.23;;;;;;;;;;5073860;28;20028;-45
2021/06/03 06:53:27;;;;;;;19.80;10.35;;;;;;;;;;5073793;28;20028;-45
2021/06/03 06:55:53;;;;;;;48.00;29.75;;;;;;;;;;5073794;28;20492;-45
2021/06/03 06:58:19;;;;;;;13.38;6.85;;;;;;;;;;5073556;28;20081;-45
2021/06/03 07:00:46;;;;;;;8.90;4.63;;;;;;;;;;5073601;28;20029;-45
2021/06/03 07:03:12;;;;;;;11.23;4.15;;;;;;;;;;5073699;28;20016;-46
2021/06/03 07:05:39;;;;;;;18.10;9.43;;;;;;;;;;5072847;28;20032;-44
2021/06/03 07:08:05;;;;;;;16.45;10.88;;;;;;;;;;5073509;28;20025;-45
2021/06/03 07:10:31;;;;;;;17.60;10.77;;;;;;;;;;5073509;28;20032;-45
2021/06/03 07:13:00;;;;;;;50.63;32.67;;;;;;;;;;5073263;28;20020;-46
2021/06/03 07:15:26;;;;;;;19.02;10.75;;;;;;;;;;5073463;28;20161;-47
2021/06/03 07:17:53;;;;;;;30.30;19.58;;;;;;;;;;5073476;28;20016;-44
2021/06/03 07:20:19;;;;;;;35.55;19.23;;;;;;;;;;5073372;28;20033;-44
2021/06/03 07:22:47;;;;;;;24.27;15.80;;;;;;;;;;5073393;28;20056;-44
2021/06/03 07:25:16;;;;;;;26.38;17.05;;;;;;;;;;5054973;28;20086;-44
2021/06/03 07:27:43;;;;;;;62.42;38.28;;;;;;;;;;5072806;28;20041;-43
2021/06/03 07:30:10;;;;;;;72.45;53.10;;;;;;;;;;5072373;28;20028;-44
2021/06/03 07:32:36;;;;;;;34.22;22.42;;;;;;;;;;5071548;28;20032;-45
2021/06/03 07:35:03;;;;;;;20.45;13.77;;;;;;;;;;5071932;28;20067;-45
2021/06/03 07:37:29;;;;;;;58.50;41.35;;;;;;;;;;5071873;28;20100;-45
2021/06/03 07:39:56;;;;;;;30.83;21.45;;;;;;;;;;5071624;28;20090;-45
2021/06/03 07:42:22;;;;;;;36.03;23.40;;;;;;;;;;5071161;28;20489;-44
2021/06/03 07:44:48;;;;;;;30.10;15.95;;;;;;;;;;5071217;28;20024;-45
2021/06/03 07:47:14;;;;;;;20.38;14.52;;;;;;;;;;5072305;28;20052;-47
2021/06/03 07:49:41;;;;;;;10.02;3.83;;;;;;;;;;5072949;28;20384;-46
2021/06/03 07:52:08;;;;;;;47.95;29.40;;;;;;;;;;5072847;28;20048;-45
2021/06/03 07:54:34;;;;;;;5.25;3.58;;;;;;;;;;5054952;28;20127;-45
2021/06/03 07:57:00;;;;;;;23.92;13.90;;;;;;;;;;5072960;28;20029;-45
2021/06/03 07:59:26;;;;;;;37.25;21.08;;;;;;;;;;5072674;28;20111;-45
2021/06/03 08:01:52;;;;;;;31.95;20.65;;;;;;;;;;5071144;28;20206;-45
2021/06/03 08:04:20;;;;;;;26.48;18.83;;;;;;;;;;5071408;28;20024;-43
2021/06/03 08:06:47;;;;;;;82.80;55.95;;;;;;;;;;5071222;28;20044;-45
2021/06/03 08:09:13;;;;;;;49.22;31.70;;;;;;;;;;5071258;28;20024;-43
2021/06/03 08:11:42;;;;;;;64.43;41.97;;;;;;;;;;5071339;28;20498;-46
2021/06/03 08:14:08;;;;;;;9.05;4.63;;;;;;;;;;5070940;28;20025;-46
2021/06/03 08:16:34;;;;;;;28.50;18.98;;;;;;;;;;5074728;28;20029;-46
2021/06/03 08:19:00;;;;;;;16.38;9.52;;;;;;;;;;5076475;28;20056;-44
2021/06/03 08:21:26;;;;;;;37.25;20.02;;;;;;;;;;5076046;28;20059;-45
2021/06/03 08:23:52;;;;;;;97.40;68.07;;;;;;;;;;5076359;28;20028;-45
2021/06/03 08:26:20;;;;;;;106.15;64.10;;;;;;;;;;5076427;28;20124;-43
2021/06/03 08:28:46;;;;;;;51.72;35.20;;;;;;;;;;5076457;28;20468;-46
2021/06/03 08:31:12;;;;;;;41.78;23.38;;;;;;;;;;5076190;28;20028;-45
2021/06/03 08:33:38;;;;;;;29.27;16.67;;;;;;;;;;5076230;28;20086;-45
2021/06/03 08:36:05;;;;;;;25.42;15.68;;;;;;;;;;5076060;28;20024;-44
2021/06/03 08:38:31;;;;;;;26.30;15.68;;;;;;;;;;5076411;28;20376;-44
2021/06/03 08:40:58;;;;;;;132.45;88.85;;;;;;;;;;5076146;28;20027;-45
2021/06/03 08:43:28;;;;;;;26.67;14.70;;;;;;;;;;5075752;28;20036;-44
2021/06/03 08:45:55;;;;;;;56.65;30.45;;;;;;;;;;5076028;28;20093;-45
2021/06/03 08:48:21;;;;;;;28.50;14.27;;;;;;;;;;5075828;28;20027;-45
2021/06/03 08:50:48;;;;;;;8.43;3.85;;;;;;;;;;5075550;28;20028;-45
2021/06/03 08:53:15;;;;;;;20.33;7.00;;;;;;;;;;5075753;28;20511;-46
2021/06/03 08:58:27;;;;;;;17.15;4.15;;;;;;;;;;5076036;28;20081;-44
2021/06/03 09:00:53;;;;;;;16.13;5.35;;;;;;;;;;5075761;28;20032;-44
2021/06/03 09:03:20;;;;;;;13.45;4.20;;;;;;;;;;5075660;28;20035;-47
2021/06/03 09:05:46;;;;;;;8.15;3.78;;;;;;;;;;5075364;28;20033;-45
2021/06/03 09:08:22;;;;;;;25.25;9.73;;;;;;;;;;5075463;28;20013;-46
2021/06/03 09:10:50;;;;;;;27.13;11.30;;;;;;;;;;5075465;28;20028;-47
2021/06/03 09:13:18;;;;;;;32.28;18.60;;;;;;;;;;5075567;28;20029;-45
2021/06/03 09:15:48;;;;;;;18.08;9.88;;;;;;;;;;5075567;28;20028;-44
2021/06/03 09:18:15;;;;;;;20.75;14.85;;;;;;;;;;5075289;28;20036;-44
2021/06/03 09:20:43;;;;;;;25.23;16.88;;;;;;;;;;5075316;28;20036;-44
2021/06/03 09:23:24;;;;;;;12.15;6.57;;;;;;;;;;5075254;28;20495;-45
2021/06/03 09:25:50;;;;;;;70.45;45.58;;;;;;;;;;5075308;28;20075;-48
2021/06/03 09:28:17;;;;;;;41.95;24.50;;;;;;;;;;5074652;28;20039;-46
2021/06/03 09:30:57;;;;;;;27.35;15.75;;;;;;;;;;5074887;28;20028;-45
2021/06/03 09:33:42;;;;;;;58.47;35.67;;;;;;;;;;5075058;28;20025;-46
2021/06/03 09:36:10;;;;;;;41.42;22.13;;;;;;;;;;5074831;28;20020;-45
2021/06/03 09:38:38;;;;;;;70.30;42.50;;;;;;;;;;5074835;28;20492;-44
2021/06/03 09:41:04;;;;;;;101.95;60.42;;;;;;;;;;5074911;28;20070;-43
2021/06/03 09:43:30;;;;;;;87.07;57.95;;;;;;;;;;5074945;28;20048;-44
2021/06/03 09:45:57;;;;;;;96.55;55.17;;;;;;;;;;5074672;28;20029;-45
2021/06/03 09:48:38;;;;;;;98.05;57.28;;;;;;;;;;5074671;28;20522;-46
2021/06/03 09:51:17;;;;;;;93.95;57.97;;;;;;;;;;5074416;28;20040;-44
2021/06/03 09:53:50;;;;;;;59.23;39.33;;;;;;;;;;5074531;28;20108;-45
2021/06/03 09:56:40;;;;;;;103.68;66.97;;;;;;;;;;5074554;28;20028;-45
2021/06/03 09:59:08;;;;;;;70.20;43.67;;;;;;;;;;4993116;28;20045;-47
2021/06/03 10:01:38;;;;;;;53.95;32.53;;;;;;;;;;4993099;28;20203;-46
2021/06/03 10:04:05;;;;;;;160.45;95.40;;;;;;;;;;4993157;28;20498;-47
2021/06/03 10:06:31;;;;;;;76.47;47.78;;;;;;;;;;4993095;28;20117;-46
2021/06/03 10:08:57;;;;;;;64.30;36.28;;;;;;;;;;4993078;28;20463;-47
2021/06/03 10:11:42;;;;;;;150.13;44.05;;;;;;;;;;4993007;28;20042;-46
2021/06/03 10:14:09;;;;;;;30.83;16.88;;;;;;;;;;4992766;28;20049;-46
2021/06/03 10:16:35;;;;;;;32.30;19.50;;;;;;;;;;4992853;28;20101;-48
2021/06/03 10:19:19;;;;;;;27.23;12.65;;;;;;;;;;4992744;28;20026;-45
2021/06/03 10:22:05;;;;;;;78.20;44.33;;;;;;;;;;4992530;28;20034;-45
2021/06/03 10:24:49;;;;;;;55.67;25.70;;;;;;;;;;4992501;28;20113;-46
2021/06/03 10:27:15;;;;;;;37.80;19.67;;;;;;;;;;4992606;28;20039;-46
2021/06/03 10:29:42;;;;;;;27.30;14.75;;;;;;;;;;4992490;28;20394;-47
2021/06/03 10:32:08;;;;;;;25.52;15.73;;;;;;;;;;4992736;28;20078;-46
2021/06/03 10:34:34;;;;;;;57.83;32.15;;;;;;;;;;4992409;28;20077;-44
2021/06/03 10:37:01;;;;;;;253.63;113.50;;;;;;;;;;5064206;28;20032;-47
2021/06/03 10:39:28;;;;;;;133.75;70.25;;;;;;;;;;5072876;28;20029;-45
2021/06/03 10:41:55;;;;;;;10.27;5.50;;;;;;;;;;5073713;28;20024;-45
2021/06/03 10:44:21;;;;;;;17.48;8.52;;;;;;;;;;5073463;28;20070;-45
2021/06/03 10:46:47;;;;;;;115.65;56.78;;;;;;;;;;5073538;28;20040;-46
2021/06/03 10:49:13;;;;;;;14.23;7.93;;;;;;;;;;5073854;28;20112;-45
2021/06/03 10:51:40;;;;;;;52.33;25.52;;;;;;;;;;5073210;28;20099;-45
2021/06/03 10:54:06;;;;;;;34.22;18.67;;;;;;;;;;5073705;28;20033;-45
2021/06/03 10:56:32;;;;;;;24.70;13.75;;;;;;;;;;5073698;28;20495;-45
2021/06/03 10:59:01;;;;;;;20.05;10.50;;;;;;;;;;5073543;28;20056;-45
2021/06/03 11:01:29;;;;;;;28.55;13.18;;;;;;;;;;5073444;28;20427;-45
2021/06/03 11:04:00;;;;;;;19.48;8.68;;;;;;;;;;5073444;28;20495;-47
2021/06/03 11:06:30;;;;;;;27.80;13.85;;;;;;;;;;5073303;28;20445;-45
2021/06/03 11:08:57;;;;;;;20.77;11.10;;;;;;;;;;5073320;28;20032;-44
2021/06/03 11:11:25;;;;;;;39.47;19.90;;;;;;;;;;5073432;28;20036;-47
2021/06/03 11:13:51;;;;;;;9.02;3.42;;;;;;;;;;5073237;28;20481;-46
2021/06/03 11:16:18;;;;;;;7.13;3.33;;;;;;;;;;5073386;28;20033;-46
2021/06/03 11:18:50;;;;;;;12.25;7.38;;;;;;;;;;5073218;28;20732;-45
2021/06/03 11:21:33;;;;;;;14.65;5.70;;;;;;;;;;5073454;28;20086;-45
2021/06/03 11:24:03;;;;;;;12.23;7.53;;;;;;;;;;5073684;28;20591;-45
2021/06/03 11:26:39;;;;;;;9.80;3.83;;;;;;;;;;5073373;28;20043;-45
2021/06/03 11:29:20;;;;;;;14.95;7.75;;;;;;;;;;5073168;28;20362;-45
2021/06/03 11:32:06;;;;;;;15.30;5.50;;;;;;;;;;5073336;28;20103;-46
2021/06/03 11:34:41;;;;;;;12.68;5.97;;;;;;;;;;5071990;28;20060;-46
2021/06/03 11:37:08;;;;;;;12.57;4.40;;;;;;;;;;5073386;28;20043;-46
2021/06/03 11:39:44;;;;;;;29.90;6.18;;;;;;;;;;5073311;28;20036;-47
2021/06/03 11:42:29;;;;;;;21.05;3.70;;;;;;;;;;5073482;28;20024;-46
2021/06/03 11:45:36;;;;;;;16.35;4.22;;;;;;;;;;5073291;28;20515;-46
2021/06/03 11:48:09;;;;;;;18.55;5.53;;;;;;;;;;5011664;28;20038;-45
2021/06/03 11:50:37;;;;;;;19.52;3.58;;;;;;;;;;5012431;28;20473;-46
2021/06/03 11:53:03;;;;;;;9.15;2.80;;;;;;;;;;5015429;28;20089;-44
2021/06/03 11:55:41;;;;;;;5.22;2.60;;;;;;;;;;4998211;28;20099;-43
2021/06/03 11:58:10;;;;;;;6.25;2.60;;;;;;;;;;5015185;28;20030;-47
2021/06/03 12:00:41;;;;;;;4.05;2.58;;;;;;;;;;5015359;28;20122;-46
2021/06/03 12:03:39;;;;;;;206.85;15.20;;;;;;;;;;5015267;28;20034;-45
2021/06/03 12:06:05;;;;;;;57.50;6.03;;;;;;;;;;4956513;29;20042;-46
2021/06/03 12:08:31;;;;;;;442.50;29.10;;;;;;;;;;4956757;28;20427;-45
2021/06/03 12:10:58;;;;;;;154.15;11.13;;;;;;;;;;4956374;29;20110;-45
2021/06/03 12:13:25;;;;;;;131.75;8.73;;;;;;;;;;4956491;28;20118;-45
2021/06/03 12:15:51;;;;;;;43.00;4.18;;;;;;;;;;4956340;28;20035;-45
2021/06/03 12:18:17;;;;;;;25.95;3.78;;;;;;;;;;4974184;28;20117;-47
2021/06/03 12:20:44;;;;;;;129.48;11.10;;;;;;;;;;5014739;28;20085;-46
2021/06/03 12:23:11;;;;;;;50.25;5.65;;;;;;;;;;5014765;28;20128;-47
2021/06/03 12:25:39;;;;;;;111.60;8.60;;;;;;;;;;5014623;28;20034;-46
2021/06/03 12:28:05;;;;;;;200.98;14.85;;;;;;;;;;5014668;28;20038;-46
2021/06/03 12:30:34;;;;;;;444.92;32.03;;;;;;;;;;5014490;28;20129;-46
2021/06/03 12:33:26;;;;;;;491.08;34.83;;;;;;;;;;5014470;28;20041;-46
2021/06/03 12:36:06;;;;;;;427.67;29.73;;;;;;;;;;5014449;28;20169;-46
2021/06/03 12:38:42;;;;;;;522.58;33.45;;;;;;;;;;5014217;28;20029;-47
2021/06/03 12:41:11;;;;;;;41.30;4.00;;;;;;;;;;5031410;28;20478;-47
2021/06/03 12:43:45;;;;;;;63.42;7.03;;;;;;;;;;5075903;28;20024;-46
2021/06/03 12:46:12;;;;;;;67.30;5.05;;;;;;;;;;5075906;28;20032;-46
2021/06/03 12:48:38;;;;;;;43.92;5.68;;;;;;;;;;5076110;28;20017;-46
2021/06/03 12:51:09;;;;;;;58.85;5.03;;;;;;;;;;5075805;28;20028;-46
2021/06/03 12:53:35;;;;;;;;;;;;;;;;;;5076420;28;20432;-43
2021/06/03 12:56:10;;;;;;;57.28;5.35;;;;;;;;;;5076059;28;19911;-46
2021/06/03 12:58:36;;;;;;;33.08;4.93;;;;;;;;;;5075750;28;20503;-46
2021/06/03 13:01:05;;;;;;;26.10;3.20;;;;;;;;;;5075742;28;20048;-45
2021/06/03 13:03:31;;;;;;;8.40;2.38;;;;;;;;;;5075132;28;20415;-45
2021/06/03 13:06:02;;;;;;;16.42;3.30;;;;;;;;;;5075450;28;20037;-47
2021/06/03 13:09:01;;;;;;;29.52;3.58;;;;;;;;;;5075240;28;20027;-45
2021/06/03 13:11:29;;;;;;;10.63;3.40;;;;;;;;;;4993943;28;20045;-47
2021/06/03 13:13:55;;;;;;;27.50;9.82;;;;;;;;;;4993946;28;20030;-46
2021/06/03 13:16:27;;;;;;;15.50;8.00;;;;;;;;;;4994019;28;20394;-47
2021/06/03 13:18:53;;;;;;;12.10;5.82;;;;;;;;;;4994306;28;20061;-44
2021/06/03 13:21:22;;;;;;;28.55;16.65;;;;;;;;;;4993463;28;20046;-44
2021/06/03 13:23:49;;;;;;;128.48;20.63;;;;;;;;;;4993739;28;20026;-45
2021/06/03 13:26:19;;;;;;;15.00;7.57;;;;;;;;;;4993622;28;20065;-46
2021/06/03 13:28:45;;;;;;;37.03;23.88;;;;;;;;;;4993660;28;20104;-46
2021/06/03 13:31:12;;;;;;;42.42;16.40;;;;;;;;;;4993454;28;20450;-46
2021/06/03 13:33:38;;;;;;;51.83;33.33;;;;;;;;;;4993499;28;20039;-46
2021/06/03 13:36:07;;;;;;;17.40;7.25;;;;;;;;;;4993526;28;20037;-47
2021/06/03 13:38:41;;;;;;;64.13;32.65;;;;;;;;;;4993755;28;20031;-47
2021/06/03 13:41:07;;;;;;;192.18;130.38;;;;;;;;;;5012951;28;20180;-45
2021/06/03 13:43:34;;;;;;;76.38;51.33;;;;;;;;;;5012770;28;20080;-46
2021/06/03 13:46:08;;;;;;;64.28;36.97;;;;;;;;;;5017969;28;20085;-45
2021/06/03 13:48:38;;;;;;;172.18;111.60;;;;;;;;;;5063616;28;20140;-46
2021/06/03 13:51:17;;;;;;;65.60;37.72;;;;;;;;;;5047645;28;20040;-45
2021/06/03 13:53:45;;;;;;;112.40;49.58;;;;;;;;;;5047487;28;20391;-45
2021/06/03 13:56:14;;;;;;;110.57;71.90;;;;;;;;;;5047222;28;20443;-45
2021/06/03 13:58:43;;;;;;;26.02;13.07;;;;;;;;;;5047292;28;20215;-46
2021/06/03 14:01:15;;;;;;;32.17;21.40;;;;;;;;;;5047567;28;20107;-45
2021/06/03 14:03:51;;;;;;;53.13;34.08;;;;;;;;;;5047242;28;20436;-45
2021/06/03 14:06:21;;;;;;;203.50;122.35;;;;;;;;;;5047157;28;20044;-46
2021/06/03 14:08:48;;;;;;;30.13;16.65;;;;;;;;;;5046848;28;20021;-46
2021/06/03 14:13:46;;;;;;;58.33;33.67;;;;;;;;;;5046549;28;20370;-43
2021/06/03 14:16:12;;;;;;;77.35;47.05;;;;;;;;;;5047220;28;20739;-46
2021/06/03 14:18:38;;;;;;;37.83;23.40;;;;;;;;;;5046572;28;20116;-45
2021/06/03 14:21:08;;;;;;;48.13;22.65;;;;;;;;;;5046952;28;20099;-45
2021/06/03 14:23:38;;;;;;;14.43;6.63;;;;;;;;;;5046891;28;20040;-45
2021/06/03 14:26:14;;;;;;;10.45;4.25;;;;;;;;;;5046126;28;20067;-46
2021/06/03 14:28:42;;;;;;;23.20;11.52;;;;;;;;;;5046462;28;20696;-45
2021/06/03 14:31:08;;;;;;;38.65;23.75;;;;;;;;;;5046858;28;20032;-46
2021/06/03 14:33:34;;;;;;;107.95;56.95;;;;;;;;;;5046380;28;20063;-45
2021/06/03 14:36:01;;;;;;;22.08;6.43;;;;;;;;;;5046191;28;20033;-45
2021/06/03 14:38:27;;;;;;;40.83;14.80;;;;;;;;;;5046921;28;20021;-46